sensor_id;sensor_type;location;lat;lon;timestamp;pressure;altitude;pressure_sealevel;temperature;humidity
71791;BME280;59638;52.126;5.434;2023-06-22T00:01:13;102075.19;;;15.97;100.00
71791;BME280;59638;52.126;5.434;2023-06-22T00:03:40;102062.31;;;15.92;100.00
71791;BME280;59638;52.126;5.434;2023-06-22T00:06:06;102062.59;;;15.89;100.00
71791;BME280;59638;52.126;5.434;2023-06-22T00:08:33;102065.41;;;15.88;100.00
71791;BME280;59638;52.126;5.434;2023-06-22T00:10:59;102069.31;;;15.84;100.00
71791;BME280;59638;52.126;5.434;2023-06-22T00:13:26;102077.47;;;15.82;100.00
71791;BME280;59638;52.126;5.434;2023-06-22T00:15:52;102072.13;;;15.82;100.00
71791;BME280;59638;52.126;5.434;2023-06-22T00:18:18;102061.78;;;15.79;100.00
71791;BME280;59638;52.126;5.434;2023-06-22T00:20:45;102055.72;;;15.77;100.00
71791;BME280;59638;52.126;5.434;2023-06-22T00:23:13;102065.44;;;15.78;100.00
71791;BME280;59638;52.126;5.434;2023-06-22T00:25:42;102064.03;;;15.74;100.00
71791;BME280;59638;52.126;5.434;2023-06-22T00:28:08;102062.91;;;15.67;100.00
71791;BME280;59638;52.126;5.434;2023-06-22T00:30:35;102054.75;;;15.59;100.00
71791;BME280;59638;52.126;5.434;2023-06-22T00:33:02;102056.69;;;15.57;100.00
71791;BME280;59638;52.126;5.434;2023-06-22T00:35:28;102050.00;;;15.53;100.00
71791;BME280;59638;52.126;5.434;2023-06-22T00:37:56;102048.03;;;15.55;100.00
71791;BME280;59638;52.126;5.434;2023-06-22T00:40:32;102035.41;;;15.57;100.00
71791;BME280;59638;52.126;5.434;2023-06-22T00:42:59;102042.97;;;15.51;100.00
71791;BME280;59638;52.126;5.434;2023-06-22T00:45:26;102046.63;;;15.50;100.00
71791;BME280;59638;52.126;5.434;2023-06-22T00:47:55;102046.75;;;15.49;100.00
71791;BME280;59638;52.126;5.434;2023-06-22T00:50:24;102048.72;;;15.47;100.00
71791;BME280;59638;52.126;5.434;2023-06-22T00:52:54;102043.25;;;15.48;100.00
71791;BME280;59638;52.126;5.434;2023-06-22T00:55:23;102048.44;;;15.50;100.00
71791;BME280;59638;52.126;5.434;2023-06-22T00:57:50;102041.84;;;15.44;100.00
71791;BME280;59638;52.126;5.434;2023-06-22T01:00:17;102044.66;;;15.43;100.00
71791;BME280;59638;52.126;5.434;2023-06-22T01:02:46;102045.78;;;15.40;100.00
71791;BME280;59638;52.126;5.434;2023-06-22T01:05:14;102038.38;;;15.34;100.00
71791;BME280;59638;52.126;5.434;2023-06-22T01:07:49;102034.59;;;15.27;100.00
71791;BME280;59638;52.126;5.434;2023-06-22T01:16:23;102047.44;;;15.22;100.00
71791;BME280;59638;52.126;5.434;2023-06-22T01:18:52;102052.34;;;15.17;100.00
71791;BME280;59638;52.126;5.434;2023-06-22T01:21:20;102055.53;;;15.11;100.00
71791;BME280;59638;52.126;5.434;2023-06-22T01:26:28;102042.44;;;15.19;100.00
71791;BME280;59638;52.126;5.434;2023-06-22T01:29:04;102033.19;;;15.13;100.00
71791;BME280;59638;52.126;5.434;2023-06-22T01:31:31;102043.22;;;15.10;100.00
71791;BME280;59638;52.126;5.434;2023-06-22T01:34:01;102044.22;;;15.09;100.00
71791;BME280;59638;52.126;5.434;2023-06-22T01:36:30;102045.47;;;15.05;100.00
71791;BME280;59638;52.126;5.434;2023-06-22T01:38:58;102046.88;;;14.99;100.00
71791;BME280;59638;52.126;5.434;2023-06-22T01:41:26;102042.94;;;14.93;100.00
71791;BME280;59638;52.126;5.434;2023-06-22T01:43:54;102047.66;;;14.90;100.00
71791;BME280;59638;52.126;5.434;2023-06-22T01:46:21;102041.81;;;14.86;100.00
71791;BME280;59638;52.126;5.434;2023-06-22T01:48:48;102043.75;;;14.84;100.00
71791;BME280;59638;52.126;5.434;2023-06-22T01:51:15;102036.34;;;14.88;100.00
71791;BME280;59638;52.126;5.434;2023-06-22T01:53:42;102037.88;;;14.90;100.00
71791;BME280;59638;52.126;5.434;2023-06-22T01:56:09;102034.78;;;14.85;100.00
71791;BME280;59638;52.126;5.434;2023-06-22T01:58:38;102039.09;;;14.77;100.00
71791;BME280;59638;52.126;5.434;2023-06-22T02:01:10;102032.25;;;14.74;100.00
71791;BME280;59638;52.126;5.434;2023-06-22T02:04:05;102033.09;;;14.75;100.00
71791;BME280;59638;52.126;5.434;2023-06-22T02:06:38;102024.13;;;14.66;100.00
71791;BME280;59638;52.126;5.434;2023-06-22T02:09:11;102024.53;;;14.61;100.00
71791;BME280;59638;52.126;5.434;2023-06-22T02:11:41;102020.31;;;14.59;100.00
71791;BME280;59638;52.126;5.434;2023-06-22T02:14:09;102031.06;;;14.57;100.00
71791;BME280;59638;52.126;5.434;2023-06-22T02:16:36;102031.91;;;14.58;100.00
71791;BME280;59638;52.126;5.434;2023-06-22T02:19:04;102029.25;;;14.58;100.00
71791;BME280;59638;52.126;5.434;2023-06-22T02:21:32;102021.41;;;14.56;100.00
71791;BME280;59638;52.126;5.434;2023-06-22T02:23:59;102025.19;;;14.54;100.00
71791;BME280;59638;52.126;5.434;2023-06-22T02:26:26;102024.91;;;14.57;100.00
71791;BME280;59638;52.126;5.434;2023-06-22T02:28:53;102023.53;;;14.62;100.00
71791;BME280;59638;52.126;5.434;2023-06-22T02:31:19;102022.25;;;14.57;100.00
71791;BME280;59638;52.126;5.434;2023-06-22T02:33:46;102030.50;;;14.54;100.00
71791;BME280;59638;52.126;5.434;2023-06-22T02:36:14;102026.44;;;14.50;100.00
71791;BME280;59638;52.126;5.434;2023-06-22T02:38:41;102018.13;;;14.43;100.00
71791;BME280;59638;52.126;5.434;2023-06-22T02:41:15;102019.50;;;14.37;100.00
71791;BME280;59638;52.126;5.434;2023-06-22T02:43:45;102031.25;;;14.35;100.00
71791;BME280;59638;52.126;5.434;2023-06-22T02:46:13;102028.97;;;14.30;100.00
71791;BME280;59638;52.126;5.434;2023-06-22T02:48:40;102021.41;;;14.26;100.00
71791;BME280;59638;52.126;5.434;2023-06-22T02:51:07;102013.56;;;14.24;100.00
71791;BME280;59638;52.126;5.434;2023-06-22T02:53:33;102018.88;;;14.24;100.00
71791;BME280;59638;52.126;5.434;2023-06-22T02:56:03;102014.53;;;14.23;100.00
71791;BME280;59638;52.126;5.434;2023-06-22T02:58:32;102013.84;;;14.21;100.00
71791;BME280;59638;52.126;5.434;2023-06-22T03:01:05;102021.09;;;14.19;100.00
71791;BME280;59638;52.126;5.434;2023-06-22T03:03:32;102016.91;;;14.17;100.00
71791;BME280;59638;52.126;5.434;2023-06-22T03:05:59;102016.91;;;14.17;100.00
71791;BME280;59638;52.126;5.434;2023-06-22T03:08:27;102021.38;;;14.16;100.00
71791;BME280;59638;52.126;5.434;2023-06-22T03:10:55;102026.69;;;14.16;100.00
71791;BME280;59638;52.126;5.434;2023-06-22T03:13:21;102033.94;;;14.14;100.00
71791;BME280;59638;52.126;5.434;2023-06-22T03:15:48;102024.72;;;14.18;100.00
71791;BME280;59638;52.126;5.434;2023-06-22T03:18:14;102018.56;;;14.18;100.00
71791;BME280;59638;52.126;5.434;2023-06-22T03:20:42;102036.47;;;14.15;100.00
71791;BME280;59638;52.126;5.434;2023-06-22T03:23:08;102023.31;;;14.14;100.00
71791;BME280;59638;52.126;5.434;2023-06-22T03:25:35;102032.25;;;14.13;100.00
71791;BME280;59638;52.126;5.434;2023-06-22T03:28:01;102026.22;;;14.11;100.00
71791;BME280;59638;52.126;5.434;2023-06-22T03:30:28;102019.00;;;14.13;100.00
71791;BME280;59638;52.126;5.434;2023-06-22T03:32:55;101993.44;;;14.22;100.00
71791;BME280;59638;52.126;5.434;2023-06-22T03:35:22;102006.88;;;14.20;100.00
71791;BME280;59638;52.126;5.434;2023-06-22T03:37:49;102008.22;;;14.14;100.00
71791;BME280;59638;52.126;5.434;2023-06-22T03:40:15;101998.69;;;14.12;100.00
71791;BME280;59638;52.126;5.434;2023-06-22T03:42:42;101997.75;;;14.13;100.00
71791;BME280;59638;52.126;5.434;2023-06-22T03:45:09;102000.97;;;14.17;100.00
71791;BME280;59638;52.126;5.434;2023-06-22T03:47:35;102006.13;;;14.18;100.00
71791;BME280;59638;52.126;5.434;2023-06-22T03:50:02;101995.41;;;14.20;100.00
71791;BME280;59638;52.126;5.434;2023-06-22T03:52:30;101999.84;;;14.19;100.00
71791;BME280;59638;52.126;5.434;2023-06-22T03:54:56;101989.50;;;14.16;100.00
71791;BME280;59638;52.126;5.434;2023-06-22T03:57:23;101991.09;;;14.28;100.00
71791;BME280;59638;52.126;5.434;2023-06-22T03:59:50;101992.06;;;14.27;100.00
71791;BME280;59638;52.126;5.434;2023-06-22T04:02:16;101988.69;;;14.25;100.00
71791;BME280;59638;52.126;5.434;2023-06-22T04:04:42;101991.84;;;14.40;100.00
71791;BME280;59638;52.126;5.434;2023-06-22T04:07:09;101985.41;;;14.42;100.00
71791;BME280;59638;52.126;5.434;2023-06-22T04:09:36;101988.84;;;14.54;100.00
71791;BME280;59638;52.126;5.434;2023-06-22T04:12:02;101990.13;;;14.60;100.00
71791;BME280;59638;52.126;5.434;2023-06-22T04:14:29;101977.78;;;14.59;100.00
71791;BME280;59638;52.126;5.434;2023-06-22T04:16:58;101979.19;;;14.63;100.00
71791;BME280;59638;52.126;5.434;2023-06-22T04:19:24;101978.06;;;14.65;100.00
71791;BME280;59638;52.126;5.434;2023-06-22T04:21:51;101986.34;;;14.72;100.00
71791;BME280;59638;52.126;5.434;2023-06-22T04:24:17;101976.00;;;14.79;100.00
71791;BME280;59638;52.126;5.434;2023-06-22T04:26:44;101975.75;;;14.91;100.00
71791;BME280;59638;52.126;5.434;2023-06-22T04:29:13;101976.31;;;14.95;100.00
71791;BME280;59638;52.126;5.434;2023-06-22T04:31:39;101967.94;;;15.00;100.00
71791;BME280;59638;52.126;5.434;2023-06-22T04:34:07;101980.38;;;15.09;100.00
71791;BME280;59638;52.126;5.434;2023-06-22T04:36:38;101973.28;;;15.19;100.00
71791;BME280;59638;52.126;5.434;2023-06-22T04:39:10;101975.75;;;15.30;100.00
71791;BME280;59638;52.126;5.434;2023-06-22T04:41:37;101974.63;;;15.42;100.00
71791;BME280;59638;52.126;5.434;2023-06-22T04:44:22;101970.16;;;15.53;100.00
71791;BME280;59638;52.126;5.434;2023-06-22T04:47:00;101988.38;;;15.67;100.00
71791;BME280;59638;52.126;5.434;2023-06-22T04:49:30;101977.28;;;15.81;100.00
71791;BME280;59638;52.126;5.434;2023-06-22T04:52:02;101987.44;;;15.95;100.00
71791;BME280;59638;52.126;5.434;2023-06-22T04:54:29;101985.63;;;16.06;100.00
71791;BME280;59638;52.126;5.434;2023-06-22T04:56:55;101980.38;;;16.14;100.00
71791;BME280;59638;52.126;5.434;2023-06-22T04:59:27;101991.16;;;16.22;100.00
71791;BME280;59638;52.126;5.434;2023-06-22T05:01:58;101977.25;;;16.28;100.00
71791;BME280;59638;52.126;5.434;2023-06-22T05:04:25;101983.38;;;16.38;100.00
71791;BME280;59638;52.126;5.434;2023-06-22T05:06:53;101982.47;;;16.47;100.00
71791;BME280;59638;52.126;5.434;2023-06-22T05:09:20;101987.22;;;16.53;100.00
71791;BME280;59638;52.126;5.434;2023-06-22T05:11:47;101982.97;;;16.61;100.00
71791;BME280;59638;52.126;5.434;2023-06-22T05:14:13;101992.34;;;16.65;100.00
71791;BME280;59638;52.126;5.434;2023-06-22T05:16:44;101982.09;;;16.70;100.00
71791;BME280;59638;52.126;5.434;2023-06-22T05:19:11;101981.88;;;16.81;100.00
71791;BME280;59638;52.126;5.434;2023-06-22T05:21:38;101992.03;;;16.95;100.00
71791;BME280;59638;52.126;5.434;2023-06-22T05:24:05;101987.16;;;17.08;100.00
71791;BME280;59638;52.126;5.434;2023-06-22T05:26:33;101984.03;;;17.13;100.00
71791;BME280;59638;52.126;5.434;2023-06-22T05:29:01;101982.28;;;17.22;100.00
71791;BME280;59638;52.126;5.434;2023-06-22T05:31:29;101978.38;;;17.34;100.00
71791;BME280;59638;52.126;5.434;2023-06-22T05:33:56;101985.84;;;17.48;100.00
71791;BME280;59638;52.126;5.434;2023-06-22T05:36:22;101989.78;;;17.62;100.00
71791;BME280;59638;52.126;5.434;2023-06-22T05:38:52;101988.78;;;17.81;100.00
71791;BME280;59638;52.126;5.434;2023-06-22T05:41:19;101986.84;;;17.91;100.00
71791;BME280;59638;52.126;5.434;2023-06-22T05:43:45;101995.28;;;18.04;100.00
71791;BME280;59638;52.126;5.434;2023-06-22T05:46:12;101994.00;;;18.16;100.00
71791;BME280;59638;52.126;5.434;2023-06-22T05:48:39;101992.38;;;18.24;100.00
71791;BME280;59638;52.126;5.434;2023-06-22T05:51:05;101990.09;;;18.37;100.00
71791;BME280;59638;52.126;5.434;2023-06-22T05:53:32;101985.78;;;18.44;100.00
71791;BME280;59638;52.126;5.434;2023-06-22T05:55:58;101981.75;;;18.48;100.00
71791;BME280;59638;52.126;5.434;2023-06-22T05:58:24;101992.53;;;18.64;100.00
71791;BME280;59638;52.126;5.434;2023-06-22T06:00:51;101991.94;;;18.87;100.00
71791;BME280;59638;52.126;5.434;2023-06-22T06:03:17;101990.66;;;19.15;100.00
71791;BME280;59638;52.126;5.434;2023-06-22T06:05:44;101992.66;;;19.29;100.00
71791;BME280;59638;52.126;5.434;2023-06-22T06:08:12;101986.31;;;19.55;99.85
71791;BME280;59638;52.126;5.434;2023-06-22T06:10:38;101986.31;;;19.71;97.55
71791;BME280;59638;52.126;5.434;2023-06-22T06:13:05;101982.28;;;19.83;96.74
71791;BME280;59638;52.126;5.434;2023-06-22T06:15:32;101988.25;;;20.02;95.91
71791;BME280;59638;52.126;5.434;2023-06-22T06:17:59;101978.03;;;20.05;96.18
71791;BME280;59638;52.126;5.434;2023-06-22T06:20:26;101975.47;;;20.12;96.29
71791;BME280;59638;52.126;5.434;2023-06-22T06:22:54;101973.94;;;20.26;95.31
71791;BME280;59638;52.126;5.434;2023-06-22T06:25:22;101965.00;;;20.42;94.88
71791;BME280;59638;52.126;5.434;2023-06-22T06:27:50;101976.63;;;20.65;94.74
71791;BME280;59638;52.126;5.434;2023-06-22T06:30:18;101972.66;;;20.84;91.90
71791;BME280;59638;52.126;5.434;2023-06-22T06:32:46;101969.38;;;20.97;92.05
71791;BME280;59638;52.126;5.434;2023-06-22T06:35:14;101966.94;;;21.10;90.72
71791;BME280;59638;52.126;5.434;2023-06-22T06:37:46;101963.13;;;21.27;88.60
71791;BME280;59638;52.126;5.434;2023-06-22T06:40:14;101958.03;;;21.32;87.99
71791;BME280;59638;52.126;5.434;2023-06-22T06:42:43;101964.00;;;21.42;88.07
71791;BME280;59638;52.126;5.434;2023-06-22T06:45:12;101957.28;;;21.47;87.88
71791;BME280;59638;52.126;5.434;2023-06-22T06:47:39;101955.34;;;21.70;87.42
71791;BME280;59638;52.126;5.434;2023-06-22T06:50:07;101964.00;;;22.10;84.35
71791;BME280;59638;52.126;5.434;2023-06-22T06:52:34;101956.66;;;22.33;82.58
71791;BME280;59638;52.126;5.434;2023-06-22T06:55:04;101952.50;;;22.67;81.59
71791;BME280;59638;52.126;5.434;2023-06-22T06:57:34;101946.47;;;23.01;80.40
71791;BME280;59638;52.126;5.434;2023-06-22T07:00:01;101954.09;;;23.19;80.21
71791;BME280;59638;52.126;5.434;2023-06-22T07:02:28;101948.94;;;23.24;78.75
71791;BME280;59638;52.126;5.434;2023-06-22T07:04:55;101942.78;;;23.09;78.55
71791;BME280;59638;52.126;5.434;2023-06-22T07:07:21;101943.06;;;23.14;76.46
71791;BME280;59638;52.126;5.434;2023-06-22T07:09:48;101944.44;;;23.31;77.81
71791;BME280;59638;52.126;5.434;2023-06-22T07:12:14;101946.78;;;23.41;77.56
71791;BME280;59638;52.126;5.434;2023-06-22T07:14:41;101946.22;;;23.45;78.15
71791;BME280;59638;52.126;5.434;2023-06-22T07:17:08;101952.91;;;23.77;73.72
71791;BME280;59638;52.126;5.434;2023-06-22T07:19:34;101948.50;;;24.04;70.52
71791;BME280;59638;52.126;5.434;2023-06-22T07:22:01;101946.00;;;24.09;73.31
71791;BME280;59638;52.126;5.434;2023-06-22T07:24:27;101936.34;;;24.96;68.64
71791;BME280;59638;52.126;5.434;2023-06-22T07:26:54;101941.53;;;25.84;65.73
71791;BME280;59638;52.126;5.434;2023-06-22T07:29:20;101949.41;;;26.50;62.55
71791;BME280;59638;52.126;5.434;2023-06-22T07:31:47;101945.53;;;27.34;60.45
71791;BME280;59638;52.126;5.434;2023-06-22T07:34:13;101946.88;;;28.23;57.96
71791;BME280;59638;52.126;5.434;2023-06-22T07:36:40;101946.38;;;28.33;57.63
71791;BME280;59638;52.126;5.434;2023-06-22T07:39:06;101941.53;;;28.95;53.43
71791;BME280;59638;52.126;5.434;2023-06-22T07:41:33;101943.47;;;29.41;52.95
71791;BME280;59638;52.126;5.434;2023-06-22T07:43:59;101932.69;;;29.00;54.10
71791;BME280;59638;52.126;5.434;2023-06-22T07:46:26;101925.50;;;28.75;55.18
71791;BME280;59638;52.126;5.434;2023-06-22T07:48:52;101918.31;;;28.51;55.69
71791;BME280;59638;52.126;5.434;2023-06-22T07:51:22;101918.13;;;28.64;54.69
71791;BME280;59638;52.126;5.434;2023-06-22T07:53:48;101919.56;;;28.36;54.24
71791;BME280;59638;52.126;5.434;2023-06-22T07:56:15;101920.31;;;28.25;54.14
71791;BME280;59638;52.126;5.434;2023-06-22T07:58:46;101920.03;;;28.15;55.55
71791;BME280;59638;52.126;5.434;2023-06-22T08:01:13;101915.34;;;28.82;54.67
71791;BME280;59638;52.126;5.434;2023-06-22T08:03:40;101915.22;;;28.77;55.07
71791;BME280;59638;52.126;5.434;2023-06-22T08:06:07;101910.41;;;28.79;55.44
71791;BME280;59638;52.126;5.434;2023-06-22T08:08:36;101907.03;;;29.07;52.07
71791;BME280;59638;52.126;5.434;2023-06-22T08:11:02;101898.19;;;29.59;54.28
71791;BME280;59638;52.126;5.434;2023-06-22T08:13:29;101891.19;;;30.15;49.13
71791;BME280;59638;52.126;5.434;2023-06-22T08:15:56;101886.03;;;30.58;49.09
71791;BME280;59638;52.126;5.434;2023-06-22T08:18:22;101885.22;;;31.08;49.25
71791;BME280;59638;52.126;5.434;2023-06-22T08:20:49;101882.06;;;31.33;47.49
71791;BME280;59638;52.126;5.434;2023-06-22T08:23:16;101879.72;;;31.81;45.21
71791;BME280;59638;52.126;5.434;2023-06-22T08:25:43;101877.91;;;32.13;43.97
71791;BME280;59638;52.126;5.434;2023-06-22T08:28:09;101876.13;;;31.36;46.68
71791;BME280;59638;52.126;5.434;2023-06-22T08:30:36;101861.88;;;30.50;46.67
71791;BME280;59638;52.126;5.434;2023-06-22T08:33:02;101861.59;;;30.06;48.16
71791;BME280;59638;52.126;5.434;2023-06-22T08:35:29;101863.00;;;29.81;49.09
71791;BME280;59638;52.126;5.434;2023-06-22T08:37:56;101851.81;;;29.30;48.42
71791;BME280;59638;52.126;5.434;2023-06-22T08:40:23;101854.56;;;29.07;51.79
71791;BME280;59638;52.126;5.434;2023-06-22T08:42:50;101853.84;;;28.58;52.74
71791;BME280;59638;52.126;5.434;2023-06-22T08:45:17;101845.63;;;28.76;50.71
71791;BME280;59638;52.126;5.434;2023-06-22T08:47:43;101853.44;;;28.84;51.92
71791;BME280;59638;52.126;5.434;2023-06-22T08:50:11;101841.81;;;29.71;48.98
71791;BME280;59638;52.126;5.434;2023-06-22T08:52:39;101831.28;;;30.15;48.21
71791;BME280;59638;52.126;5.434;2023-06-22T08:55:08;101837.97;;;30.24;45.76
71791;BME280;59638;52.126;5.434;2023-06-22T08:57:35;101838.78;;;30.70;45.93
71791;BME280;59638;52.126;5.434;2023-06-22T09:00:06;101832.78;;;31.40;43.51
71791;BME280;59638;52.126;5.434;2023-06-22T09:02:37;101841.88;;;30.73;44.97
71791;BME280;59638;52.126;5.434;2023-06-22T09:05:07;101851.47;;;29.90;46.85
71791;BME280;59638;52.126;5.434;2023-06-22T09:07:34;101844.47;;;29.66;48.14
71791;BME280;59638;52.126;5.434;2023-06-22T09:10:01;101841.63;;;29.37;48.84
71791;BME280;59638;52.126;5.434;2023-06-22T09:12:29;101843.63;;;28.83;51.98
71791;BME280;59638;52.126;5.434;2023-06-22T09:14:56;101838.53;;;28.75;48.55
71791;BME280;59638;52.126;5.434;2023-06-22T09:17:23;101833.78;;;28.59;51.18
71791;BME280;59638;52.126;5.434;2023-06-22T09:19:49;101832.44;;;28.08;50.99
71791;BME280;59638;52.126;5.434;2023-06-22T09:22:16;101836.47;;;28.17;50.49
71791;BME280;59638;52.126;5.434;2023-06-22T09:24:42;101836.94;;;28.44;50.87
71791;BME280;59638;52.126;5.434;2023-06-22T09:27:09;101829.53;;;28.63;50.95
71791;BME280;59638;52.126;5.434;2023-06-22T09:29:35;101841.78;;;29.19;50.27
71791;BME280;59638;52.126;5.434;2023-06-22T09:32:02;101835.47;;;29.42;46.33
71791;BME280;59638;52.126;5.434;2023-06-22T09:34:30;101832.63;;;29.48;45.81
71791;BME280;59638;52.126;5.434;2023-06-22T09:36:57;101830.66;;;29.32;48.11
71791;BME280;59638;52.126;5.434;2023-06-22T09:39:26;101833.94;;;29.58;45.12
71791;BME280;59638;52.126;5.434;2023-06-22T09:41:53;101825.91;;;30.82;44.81
71791;BME280;59638;52.126;5.434;2023-06-22T09:44:19;101831.25;;;31.49;41.06
71791;BME280;59638;52.126;5.434;2023-06-22T09:46:46;101822.88;;;31.34;44.08
71791;BME280;59638;52.126;5.434;2023-06-22T09:49:12;101821.97;;;30.73;45.63
71791;BME280;59638;52.126;5.434;2023-06-22T09:51:39;101829.69;;;29.90;48.15
71791;BME280;59638;52.126;5.434;2023-06-22T09:54:05;101822.47;;;28.62;52.10
71791;BME280;59638;52.126;5.434;2023-06-22T09:56:31;101819.63;;;27.60;54.24
71791;BME280;59638;52.126;5.434;2023-06-22T09:58:58;101819.25;;;26.76;57.59
71791;BME280;59638;52.126;5.434;2023-06-22T10:01:42;101818.63;;;26.49;54.79
71791;BME280;59638;52.126;5.434;2023-06-22T10:04:09;101824.69;;;26.45;55.03
71791;BME280;59638;52.126;5.434;2023-06-22T10:06:36;101819.53;;;25.98;54.47
71791;BME280;59638;52.126;5.434;2023-06-22T10:09:02;101823.19;;;25.72;57.60
71791;BME280;59638;52.126;5.434;2023-06-22T10:11:29;101833.63;;;25.56;56.76
71791;BME280;59638;52.126;5.434;2023-06-22T10:13:57;101824.31;;;25.38;58.51
71791;BME280;59638;52.126;5.434;2023-06-22T10:16:30;101821.63;;;25.18;58.83
71791;BME280;59638;52.126;5.434;2023-06-22T10:18:56;101821.63;;;24.99;57.96
71791;BME280;59638;52.126;5.434;2023-06-22T10:21:23;101820.38;;;24.88;58.36
71791;BME280;59638;52.126;5.434;2023-06-22T10:23:49;101811.25;;;24.76;56.14
71791;BME280;59638;52.126;5.434;2023-06-22T10:26:16;101819.56;;;24.67;60.03
71791;BME280;59638;52.126;5.434;2023-06-22T10:28:42;101821.19;;;24.55;59.88
71791;BME280;59638;52.126;5.434;2023-06-22T10:31:09;101819.16;;;24.57;58.30
71791;BME280;59638;52.126;5.434;2023-06-22T10:33:35;101814.16;;;24.54;58.87
71791;BME280;59638;52.126;5.434;2023-06-22T10:36:01;101818.31;;;24.44;62.63
71791;BME280;59638;52.126;5.434;2023-06-22T10:38:28;101820.25;;;24.08;60.71
71791;BME280;59638;52.126;5.434;2023-06-22T10:40:54;101820.25;;;24.08;58.09
71791;BME280;59638;52.126;5.434;2023-06-22T10:43:24;101820.06;;;24.17;62.83
71791;BME280;59638;52.126;5.434;2023-06-22T10:45:51;101818.22;;;24.10;62.71
71791;BME280;59638;52.126;5.434;2023-06-22T10:48:17;101819.44;;;24.14;61.96
71791;BME280;59638;52.126;5.434;2023-06-22T10:50:43;101819.38;;;23.95;65.01
71791;BME280;59638;52.126;5.434;2023-06-22T10:53:10;101821.25;;;23.94;64.37
71791;BME280;59638;52.126;5.434;2023-06-22T10:55:36;101820.25;;;24.08;61.21
71791;BME280;59638;52.126;5.434;2023-06-22T10:58:21;101826.50;;;24.15;61.04
71791;BME280;59638;52.126;5.434;2023-06-22T11:00:48;101821.78;;;24.31;60.53
71791;BME280;59638;52.126;5.434;2023-06-22T11:03:14;101819.47;;;24.28;62.03
71791;BME280;59638;52.126;5.434;2023-06-22T11:05:41;101820.75;;;24.32;64.06
71791;BME280;59638;52.126;5.434;2023-06-22T11:08:08;101816.63;;;24.49;64.20
71791;BME280;59638;52.126;5.434;2023-06-22T11:10:34;101817.06;;;24.46;64.31
71791;BME280;59638;52.126;5.434;2023-06-22T11:13:01;101810.00;;;24.52;64.28
71791;BME280;59638;52.126;5.434;2023-06-22T11:15:29;101812.50;;;24.66;63.77
71791;BME280;59638;52.126;5.434;2023-06-22T11:17:55;101805.44;;;24.79;61.87
71791;BME280;59638;52.126;5.434;2023-06-22T11:20:21;101806.25;;;24.86;64.33
71791;BME280;59638;52.126;5.434;2023-06-22T11:22:48;101807.91;;;24.93;65.12
71791;BME280;59638;52.126;5.434;2023-06-22T11:25:14;101802.53;;;24.93;64.42
71791;BME280;59638;52.126;5.434;2023-06-22T11:27:41;101802.50;;;25.00;64.34
71791;BME280;59638;52.126;5.434;2023-06-22T11:30:08;101807.53;;;24.90;63.37
71791;BME280;59638;52.126;5.434;2023-06-22T11:32:35;101803.78;;;25.11;64.05
71791;BME280;59638;52.126;5.434;2023-06-22T11:35:02;101797.91;;;25.34;64.03
71791;BME280;59638;52.126;5.434;2023-06-22T11:37:28;101800.88;;;25.12;66.27
71791;BME280;59638;52.126;5.434;2023-06-22T11:39:55;101787.16;;;25.07;64.94
71791;BME280;59638;52.126;5.434;2023-06-22T11:42:32;101781.34;;;24.97;65.20
71791;BME280;59638;52.126;5.434;2023-06-22T11:44:58;101779.69;;;24.96;64.68
71791;BME280;59638;52.126;5.434;2023-06-22T11:47:25;101774.28;;;25.09;65.27
71791;BME280;59638;52.126;5.434;2023-06-22T11:49:51;101776.06;;;25.29;61.67
71791;BME280;59638;52.126;5.434;2023-06-22T11:52:18;101767.13;;;25.35;65.92
71791;BME280;59638;52.126;5.434;2023-06-22T11:54:45;101777.53;;;25.31;61.32
71791;BME280;59638;52.126;5.434;2023-06-22T11:57:12;101769.44;;;25.31;64.79
71791;BME280;59638;52.126;5.434;2023-06-22T11:59:39;101776.75;;;25.17;65.77
71791;BME280;59638;52.126;5.434;2023-06-22T12:02:05;101770.50;;;25.04;64.03
71791;BME280;59638;52.126;5.434;2023-06-22T12:04:33;101771.38;;;25.04;65.28
71791;BME280;59638;52.126;5.434;2023-06-22T12:07:00;101768.44;;;25.12;64.92
71791;BME280;59638;52.126;5.434;2023-06-22T12:09:26;101771.13;;;24.99;65.88
71791;BME280;59638;52.126;5.434;2023-06-22T12:11:53;101769.50;;;24.91;66.50
71791;BME280;59638;52.126;5.434;2023-06-22T12:14:19;101756.63;;;24.80;67.85
71791;BME280;59638;52.126;5.434;2023-06-22T12:16:46;101758.50;;;24.80;65.60
71791;BME280;59638;52.126;5.434;2023-06-22T12:19:12;101761.41;;;24.65;67.88
71791;BME280;59638;52.126;5.434;2023-06-22T12:21:39;101754.38;;;24.44;67.82
71791;BME280;59638;52.126;5.434;2023-06-22T12:24:07;101760.09;;;24.21;68.64
71791;BME280;59638;52.126;5.434;2023-06-22T12:26:33;101748.88;;;23.98;72.35
71791;BME280;59638;52.126;5.434;2023-06-22T12:29:00;101755.19;;;23.70;74.86
71791;BME280;59638;52.126;5.434;2023-06-22T12:31:26;101751.56;;;23.50;79.53
71791;BME280;59638;52.126;5.434;2023-06-22T12:33:53;101752.94;;;23.26;76.54
71791;BME280;59638;52.126;5.434;2023-06-22T12:36:19;101745.22;;;23.23;77.68
71791;BME280;59638;52.126;5.434;2023-06-22T12:38:46;101746.09;;;23.30;78.38
71791;BME280;59638;52.126;5.434;2023-06-22T12:41:12;101742.69;;;23.15;80.25
71791;BME280;59638;52.126;5.434;2023-06-22T12:43:40;101747.13;;;22.94;77.17
71791;BME280;59638;52.126;5.434;2023-06-22T12:46:06;101743.06;;;23.05;79.57
71791;BME280;59638;52.126;5.434;2023-06-22T12:48:33;101743.75;;;22.86;81.41
71791;BME280;59638;52.126;5.434;2023-06-22T12:51:00;101743.28;;;22.82;77.68
71791;BME280;59638;52.126;5.434;2023-06-22T12:53:27;101735.84;;;22.84;77.13
71791;BME280;59638;52.126;5.434;2023-06-22T12:55:53;101734.97;;;22.77;80.64